sensor_id;sensor_type;location;lat;lon;timestamp;temperature;humidity
52211;DHT22;38179;52.756;6.906;2024-03-02T00:01:12;6.40;99.90
52211;DHT22;38179;52.756;6.906;2024-03-02T00:03:38;6.40;99.90
52211;DHT22;38179;52.756;6.906;2024-03-02T00:06:04;6.40;99.90
52211;DHT22;38179;52.756;6.906;2024-03-02T00:08:30;6.40;99.90
52211;DHT22;38179;52.756;6.906;2024-03-02T00:11:01;6.40;99.90
52211;DHT22;38179;52.756;6.906;2024-03-02T00:13:30;6.40;99.90
52211;DHT22;38179;52.756;6.906;2024-03-02T00:15:58;6.40;99.90
52211;DHT22;38179;52.756;6.906;2024-03-02T00:18:34;6.40;99.90
52211;DHT22;38179;52.756;6.906;2024-03-02T00:21:01;6.40;99.90
52211;DHT22;38179;52.756;6.906;2024-03-02T00:23:30;6.40;99.90
52211;DHT22;38179;52.756;6.906;2024-03-02T00:25:57;6.40;99.90
52211;DHT22;38179;52.756;6.906;2024-03-02T00:28:31;6.40;99.90
52211;DHT22;38179;52.756;6.906;2024-03-02T00:31:04;6.50;99.90
52211;DHT22;38179;52.756;6.906;2024-03-02T00:33:45;6.50;99.90
52211;DHT22;38179;52.756;6.906;2024-03-02T00:36:24;6.50;99.90
52211;DHT22;38179;52.756;6.906;2024-03-02T00:38:52;6.50;99.90
52211;DHT22;38179;52.756;6.906;2024-03-02T00:43:58;6.50;99.90
52211;DHT22;38179;52.756;6.906;2024-03-02T00:46:25;6.50;99.90
52211;DHT22;38179;52.756;6.906;2024-03-02T00:49:00;6.50;99.90
52211;DHT22;38179;52.756;6.906;2024-03-02T00:51:28;6.50;99.90
52211;DHT22;38179;52.756;6.906;2024-03-02T00:53:55;6.60;99.90
52211;DHT22;38179;52.756;6.906;2024-03-02T00:56:23;6.60;99.90
52211;DHT22;38179;52.756;6.906;2024-03-02T00:58:49;6.60;99.90
52211;DHT22;38179;52.756;6.906;2024-03-02T01:01:15;6.60;99.90
52211;DHT22;38179;52.756;6.906;2024-03-02T01:03:42;6.60;99.90
52211;DHT22;38179;52.756;6.906;2024-03-02T01:06:08;6.70;99.90
52211;DHT22;38179;52.756;6.906;2024-03-02T01:08:35;6.60;99.90
52211;DHT22;38179;52.756;6.906;2024-03-02T01:11:01;6.60;99.90
52211;DHT22;38179;52.756;6.906;2024-03-02T01:13:27;6.60;99.90
52211;DHT22;38179;52.756;6.906;2024-03-02T01:15:53;6.60;99.90
52211;DHT22;38179;52.756;6.906;2024-03-02T01:18:19;6.60;99.90
52211;DHT22;38179;52.756;6.906;2024-03-02T01:20:44;6.70;99.90
52211;DHT22;38179;52.756;6.906;2024-03-02T01:23:11;6.60;99.90
52211;DHT22;38179;52.756;6.906;2024-03-02T01:25:36;6.70;99.90
52211;DHT22;38179;52.756;6.906;2024-03-02T01:28:02;6.60;99.90
52211;DHT22;38179;52.756;6.906;2024-03-02T01:30:28;6.70;99.90
52211;DHT22;38179;52.756;6.906;2024-03-02T01:32:54;6.70;99.90
52211;DHT22;38179;52.756;6.906;2024-03-02T01:35:19;6.70;99.90
52211;DHT22;38179;52.756;6.906;2024-03-02T01:37:45;6.70;99.90
52211;DHT22;38179;52.756;6.906;2024-03-02T01:40:11;6.80;99.90
52211;DHT22;38179;52.756;6.906;2024-03-02T01:42:40;6.80;99.90
52211;DHT22;38179;52.756;6.906;2024-03-02T01:45:07;6.80;99.90
52211;DHT22;38179;52.756;6.906;2024-03-02T01:47:33;6.80;99.90
52211;DHT22;38179;52.756;6.906;2024-03-02T01:49:59;6.80;99.90
52211;DHT22;38179;52.756;6.906;2024-03-02T01:52:25;6.80;99.90
52211;DHT22;38179;52.756;6.906;2024-03-02T01:54:51;6.80;99.90
52211;DHT22;38179;52.756;6.906;2024-03-02T01:57:18;6.80;99.90
52211;DHT22;38179;52.756;6.906;2024-03-02T01:59:44;6.80;99.90
52211;DHT22;38179;52.756;6.906;2024-03-02T02:02:10;6.90;99.90
52211;DHT22;38179;52.756;6.906;2024-03-02T02:04:36;7.00;99.90
52211;DHT22;38179;52.756;6.906;2024-03-02T02:07:01;6.90;99.90
52211;DHT22;38179;52.756;6.906;2024-03-02T02:09:27;6.90;99.90
52211;DHT22;38179;52.756;6.906;2024-03-02T02:11:53;6.90;99.90
52211;DHT22;38179;52.756;6.906;2024-03-02T02:14:19;6.90;99.90
52211;DHT22;38179;52.756;6.906;2024-03-02T02:16:44;7.00;99.90
52211;DHT22;38179;52.756;6.906;2024-03-02T02:19:10;7.00;99.90
52211;DHT22;38179;52.756;6.906;2024-03-02T02:21:36;7.00;99.90
52211;DHT22;38179;52.756;6.906;2024-03-02T02:24:01;7.10;99.90
52211;DHT22;38179;52.756;6.906;2024-03-02T02:26:29;7.00;99.90
52211;DHT22;38179;52.756;6.906;2024-03-02T02:28:55;7.00;99.90
52211;DHT22;38179;52.756;6.906;2024-03-02T02:31:21;7.00;99.90
52211;DHT22;38179;52.756;6.906;2024-03-02T02:33:46;7.00;99.90
52211;DHT22;38179;52.756;6.906;2024-03-02T02:36:12;7.00;99.90
52211;DHT22;38179;52.756;6.906;2024-03-02T02:38:41;7.00;99.90
52211;DHT22;38179;52.756;6.906;2024-03-02T02:41:08;7.00;99.90
52211;DHT22;38179;52.756;6.906;2024-03-02T02:43:34;7.10;99.90
52211;DHT22;38179;52.756;6.906;2024-03-02T02:45:59;7.00;99.90
52211;DHT22;38179;52.756;6.906;2024-03-02T02:48:25;7.00;99.90
52211;DHT22;38179;52.756;6.906;2024-03-02T02:50:51;7.00;99.90
52211;DHT22;38179;52.756;6.906;2024-03-02T02:53:17;6.90;99.90
52211;DHT22;38179;52.756;6.906;2024-03-02T02:55:42;7.00;99.90
52211;DHT22;38179;52.756;6.906;2024-03-02T02:58:12;7.00;99.90
52211;DHT22;38179;52.756;6.906;2024-03-02T03:00:38;7.00;99.90
52211;DHT22;38179;52.756;6.906;2024-03-02T03:03:04;7.10;99.90
52211;DHT22;38179;52.756;6.906;2024-03-02T03:05:30;7.10;99.90
52211;DHT22;38179;52.756;6.906;2024-03-02T03:07:55;7.30;99.90
52211;DHT22;38179;52.756;6.906;2024-03-02T03:10:21;7.10;99.90
52211;DHT22;38179;52.756;6.906;2024-03-02T03:12:48;7.10;99.90
52211;DHT22;38179;52.756;6.906;2024-03-02T03:15:14;7.20;99.90
52211;DHT22;38179;52.756;6.906;2024-03-02T03:17:41;7.20;99.90
52211;DHT22;38179;52.756;6.906;2024-03-02T03:20:08;7.20;99.90
52211;DHT22;38179;52.756;6.906;2024-03-02T03:22:37;7.30;99.90
52211;DHT22;38179;52.756;6.906;2024-03-02T03:25:03;7.30;99.90
52211;DHT22;38179;52.756;6.906;2024-03-02T03:27:29;7.30;99.90
52211;DHT22;38179;52.756;6.906;2024-03-02T03:29:55;7.40;99.90
52211;DHT22;38179;52.756;6.906;2024-03-02T03:32:20;7.40;99.90
52211;DHT22;38179;52.756;6.906;2024-03-02T03:34:47;7.30;99.90
52211;DHT22;38179;52.756;6.906;2024-03-02T03:37:14;7.50;99.90
52211;DHT22;38179;52.756;6.906;2024-03-02T03:39:42;7.40;99.90
52211;DHT22;38179;52.756;6.906;2024-03-02T03:42:08;7.40;99.90
52211;DHT22;38179;52.756;6.906;2024-03-02T03:44:34;7.50;99.90
52211;DHT22;38179;52.756;6.906;2024-03-02T03:46:59;7.30;99.90
52211;DHT22;38179;52.756;6.906;2024-03-02T03:49:27;7.30;99.90
52211;DHT22;38179;52.756;6.906;2024-03-02T03:51:53;7.20;99.90
52211;DHT22;38179;52.756;6.906;2024-03-02T03:54:18;7.20;99.90
52211;DHT22;38179;52.756;6.906;2024-03-02T03:56:44;7.20;99.90
52211;DHT22;38179;52.756;6.906;2024-03-02T03:59:10;7.20;99.90
52211;DHT22;38179;52.756;6.906;2024-03-02T04:01:35;7.10;99.90
52211;DHT22;38179;52.756;6.906;2024-03-02T04:04:01;7.10;99.90
52211;DHT22;38179;52.756;6.906;2024-03-02T04:06:29;7.10;99.90
52211;DHT22;38179;52.756;6.906;2024-03-02T04:08:55;7.10;99.90
52211;DHT22;38179;52.756;6.906;2024-03-02T04:11:20;7.10;99.90
52211;DHT22;38179;52.756;6.906;2024-03-02T04:13:46;7.00;99.90
52211;DHT22;38179;52.756;6.906;2024-03-02T04:16:12;7.00;99.90
52211;DHT22;38179;52.756;6.906;2024-03-02T04:18:37;7.00;99.90
52211;DHT22;38179;52.756;6.906;2024-03-02T04:21:05;6.90;99.90
52211;DHT22;38179;52.756;6.906;2024-03-02T04:23:30;6.90;99.90
52211;DHT22;38179;52.756;6.906;2024-03-02T04:25:56;7.00;99.90
52211;DHT22;38179;52.756;6.906;2024-03-02T04:28:22;6.80;99.90
52211;DHT22;38179;52.756;6.906;2024-03-02T04:30:47;6.90;99.90
52211;DHT22;38179;52.756;6.906;2024-03-02T04:33:13;6.80;99.90
52211;DHT22;38179;52.756;6.906;2024-03-02T04:35:39;6.90;99.90
52211;DHT22;38179;52.756;6.906;2024-03-02T04:38:04;6.70;99.90
52211;DHT22;38179;52.756;6.906;2024-03-02T04:40:30;6.90;99.90
52211;DHT22;38179;52.756;6.906;2024-03-02T04:42:56;6.70;99.90
52211;DHT22;38179;52.756;6.906;2024-03-02T04:45:23;6.70;99.90
52211;DHT22;38179;52.756;6.906;2024-03-02T04:47:49;6.70;99.90
52211;DHT22;38179;52.756;6.906;2024-03-02T04:50:15;6.80;99.90
52211;DHT22;38179;52.756;6.906;2024-03-02T04:52:40;6.60;99.90
52211;DHT22;38179;52.756;6.906;2024-03-02T04:55:06;6.60;99.90
52211;DHT22;38179;52.756;6.906;2024-03-02T04:57:44;6.60;99.90
52211;DHT22;38179;52.756;6.906;2024-03-02T05:00:10;6.50;99.90
52211;DHT22;38179;52.756;6.906;2024-03-02T05:02:36;6.50;99.90
52211;DHT22;38179;52.756;6.906;2024-03-02T05:05:01;6.50;99.90
52211;DHT22;38179;52.756;6.906;2024-03-02T05:07:28;6.50;99.90
52211;DHT22;38179;52.756;6.906;2024-03-02T05:09:54;6.40;99.90
52211;DHT22;38179;52.756;6.906;2024-03-02T05:12:19;6.40;99.90
52211;DHT22;38179;52.756;6.906;2024-03-02T05:15:04;6.40;99.90
52211;DHT22;38179;52.756;6.906;2024-03-02T05:19:59;6.30;99.90
52211;DHT22;38179;52.756;6.906;2024-03-02T05:22:25;6.30;99.90
52211;DHT22;38179;52.756;6.906;2024-03-02T05:24:50;6.20;99.90
52211;DHT22;38179;52.756;6.906;2024-03-02T05:27:16;6.20;99.90
52211;DHT22;38179;52.756;6.906;2024-03-02T05:29:42;6.20;99.90
52211;DHT22;38179;52.756;6.906;2024-03-02T05:32:07;6.20;99.90
52211;DHT22;38179;52.756;6.906;2024-03-02T05:34:33;6.20;99.90
52211;DHT22;38179;52.756;6.906;2024-03-02T05:37:01;6.20;99.90
52211;DHT22;38179;52.756;6.906;2024-03-02T05:39:26;6.20;99.90
52211;DHT22;38179;52.756;6.906;2024-03-02T05:41:52;6.20;99.90
52211;DHT22;38179;52.756;6.906;2024-03-02T05:44:18;6.10;99.90
52211;DHT22;38179;52.756;6.906;2024-03-02T05:46:45;6.10;99.90
52211;DHT22;38179;52.756;6.906;2024-03-02T05:49:11;6.10;99.90
52211;DHT22;38179;52.756;6.906;2024-03-02T05:51:36;6.10;99.90
52211;DHT22;38179;52.756;6.906;2024-03-02T05:54:02;6.10;99.90
52211;DHT22;38179;52.756;6.906;2024-03-02T05:56:28;6.10;99.90
52211;DHT22;38179;52.756;6.906;2024-03-02T05:58:54;6.10;99.90
52211;DHT22;38179;52.756;6.906;2024-03-02T06:01:45;6.10;99.90
52211;DHT22;38179;52.756;6.906;2024-03-02T06:04:17;6.00;99.90
52211;DHT22;38179;52.756;6.906;2024-03-02T06:06:43;6.00;99.90
52211;DHT22;38179;52.756;6.906;2024-03-02T06:09:09;6.00;99.90
52211;DHT22;38179;52.756;6.906;2024-03-02T06:11:39;6.00;99.90
52211;DHT22;38179;52.756;6.906;2024-03-02T06:14:07;5.90;99.90
52211;DHT22;38179;52.756;6.906;2024-03-02T06:16:33;5.90;99.90
52211;DHT22;38179;52.756;6.906;2024-03-02T06:18:59;5.80;99.90
52211;DHT22;38179;52.756;6.906;2024-03-02T06:21:25;5.80;99.90
52211;DHT22;38179;52.756;6.906;2024-03-02T06:23:51;5.80;99.90
52211;DHT22;38179;52.756;6.906;2024-03-02T06:26:17;5.90;99.90
52211;DHT22;38179;52.756;6.906;2024-03-02T06:28:44;5.90;99.90
52211;DHT22;38179;52.756;6.906;2024-03-02T06:31:10;5.90;99.90
52211;DHT22;38179;52.756;6.906;2024-03-02T06:33:36;5.90;99.90
52211;DHT22;38179;52.756;6.906;2024-03-02T06:36:02;6.00;99.90
52211;DHT22;38179;52.756;6.906;2024-03-02T06:38:28;6.00;99.90
52211;DHT22;38179;52.756;6.906;2024-03-02T06:40:54;6.00;99.90
52211;DHT22;38179;52.756;6.906;2024-03-02T06:43:22;6.10;99.90
52211;DHT22;38179;52.756;6.906;2024-03-02T06:45:49;6.10;99.90
52211;DHT22;38179;52.756;6.906;2024-03-02T06:48:16;6.10;99.90
52211;DHT22;38179;52.756;6.906;2024-03-02T06:50:46;6.20;99.90
52211;DHT22;38179;52.756;6.906;2024-03-02T06:53:13;6.20;99.90
52211;DHT22;38179;52.756;6.906;2024-03-02T06:55:38;6.20;99.90
52211;DHT22;38179;52.756;6.906;2024-03-02T06:58:04;6.20;99.90
52211;DHT22;38179;52.756;6.906;2024-03-02T07:00:30;6.20;99.90
52211;DHT22;38179;52.756;6.906;2024-03-02T07:02:56;6.20;99.90
52211;DHT22;38179;52.756;6.906;2024-03-02T07:05:21;6.30;99.90
52211;DHT22;38179;52.756;6.906;2024-03-02T07:07:47;6.20;99.90
52211;DHT22;38179;52.756;6.906;2024-03-02T07:10:13;6.30;99.90
52211;DHT22;38179;52.756;6.906;2024-03-02T07:12:38;6.30;99.90
52211;DHT22;38179;52.756;6.906;2024-03-02T07:15:04;6.30;99.90
52211;DHT22;38179;52.756;6.906;2024-03-02T07:17:31;6.30;99.90
52211;DHT22;38179;52.756;6.906;2024-03-02T07:19:57;6.30;99.90
52211;DHT22;38179;52.756;6.906;2024-03-02T07:22:23;6.20;99.90
52211;DHT22;38179;52.756;6.906;2024-03-02T07:24:49;6.20;99.90
52211;DHT22;38179;52.756;6.906;2024-03-02T07:27:16;6.20;99.90
52211;DHT22;38179;52.756;6.906;2024-03-02T07:29:42;6.20;99.90
52211;DHT22;38179;52.756;6.906;2024-03-02T07:32:09;6.40;99.90
52211;DHT22;38179;52.756;6.906;2024-03-02T07:34:35;6.30;99.90
52211;DHT22;38179;52.756;6.906;2024-03-02T07:37:00;6.30;99.90
52211;DHT22;38179;52.756;6.906;2024-03-02T07:39:27;6.30;99.90
52211;DHT22;38179;52.756;6.906;2024-03-02T07:41:55;6.30;99.90
52211;DHT22;38179;52.756;6.906;2024-03-02T07:44:36;6.30;99.90
52211;DHT22;38179;52.756;6.906;2024-03-02T07:47:05;6.40;99.90
52211;DHT22;38179;52.756;6.906;2024-03-02T07:49:31;6.40;99.90
52211;DHT22;38179;52.756;6.906;2024-03-02T07:51:57;6.40;99.90
52211;DHT22;38179;52.756;6.906;2024-03-02T07:54:24;6.50;99.90
52211;DHT22;38179;52.756;6.906;2024-03-02T07:56:49;6.40;99.90
52211;DHT22;38179;52.756;6.906;2024-03-02T07:59:15;6.50;99.90
52211;DHT22;38179;52.756;6.906;2024-03-02T08:01:41;6.60;99.90
52211;DHT22;38179;52.756;6.906;2024-03-02T08:04:07;6.50;99.90
52211;DHT22;38179;52.756;6.906;2024-03-02T08:06:33;6.50;99.90
52211;DHT22;38179;52.756;6.906;2024-03-02T08:09:00;6.70;99.90
52211;DHT22;38179;52.756;6.906;2024-03-02T08:11:26;6.70;99.90
52211;DHT22;38179;52.756;6.906;2024-03-02T08:13:56;6.60;99.90
52211;DHT22;38179;52.756;6.906;2024-03-02T08:16:23;6.70;99.90
52211;DHT22;38179;52.756;6.906;2024-03-02T08:18:49;6.80;99.90
52211;DHT22;38179;52.756;6.906;2024-03-02T08:21:15;6.90;99.90
52211;DHT22;38179;52.756;6.906;2024-03-02T08:23:42;6.80;99.90
52211;DHT22;38179;52.756;6.906;2024-03-02T08:26:09;6.80;99.90
52211;DHT22;38179;52.756;6.906;2024-03-02T08:28:35;6.80;99.90
52211;DHT22;38179;52.756;6.906;2024-03-02T08:31:06;6.80;99.90
52211;DHT22;38179;52.756;6.906;2024-03-02T08:33:31;6.80;99.90
52211;DHT22;38179;52.756;6.906;2024-03-02T08:35:57;6.90;99.90
52211;DHT22;38179;52.756;6.906;2024-03-02T08:38:23;6.90;99.90
52211;DHT22;38179;52.756;6.906;2024-03-02T08:40:49;7.00;99.90
52211;DHT22;38179;52.756;6.906;2024-03-02T08:43:15;7.20;99.90
52211;DHT22;38179;52.756;6.906;2024-03-02T08:45:41;7.30;99.90
52211;DHT22;38179;52.756;6.906;2024-03-02T08:48:10;7.40;99.90
52211;DHT22;38179;52.756;6.906;2024-03-02T08:50:36;7.40;99.90
52211;DHT22;38179;52.756;6.906;2024-03-02T08:53:03;7.50;99.90
52211;DHT22;38179;52.756;6.906;2024-03-02T08:55:29;7.60;99.90
52211;DHT22;38179;52.756;6.906;2024-03-02T08:57:55;7.60;99.90
52211;DHT22;38179;52.756;6.906;2024-03-02T09:00:21;7.80;99.90
52211;DHT22;38179;52.756;6.906;2024-03-02T09:02:47;7.80;99.90
52211;DHT22;38179;52.756;6.906;2024-03-02T09:05:13;7.80;99.90
52211;DHT22;38179;52.756;6.906;2024-03-02T09:07:39;7.80;99.90
52211;DHT22;38179;52.756;6.906;2024-03-02T09:10:08;7.80;99.90
52211;DHT22;38179;52.756;6.906;2024-03-02T09:12:34;7.80;99.90
52211;DHT22;38179;52.756;6.906;2024-03-02T09:15:01;7.80;99.90
52211;DHT22;38179;52.756;6.906;2024-03-02T09:17:27;7.90;99.90
52211;DHT22;38179;52.756;6.906;2024-03-02T09:19:52;7.90;99.90
52211;DHT22;38179;52.756;6.906;2024-03-02T09:22:21;8.00;99.90
52211;DHT22;38179;52.756;6.906;2024-03-02T09:24:47;8.10;99.90
52211;DHT22;38179;52.756;6.906;2024-03-02T09:27:13;8.20;99.90
52211;DHT22;38179;52.756;6.906;2024-03-02T09:29:41;8.40;99.90
52211;DHT22;38179;52.756;6.906;2024-03-02T09:32:07;8.50;99.90
52211;DHT22;38179;52.756;6.906;2024-03-02T09:34:33;8.50;99.90
52211;DHT22;38179;52.756;6.906;2024-03-02T09:36:59;8.60;99.90
52211;DHT22;38179;52.756;6.906;2024-03-02T09:39:25;8.60;99.90
52211;DHT22;38179;52.756;6.906;2024-03-02T09:41:51;8.60;99.90
52211;DHT22;38179;52.756;6.906;2024-03-02T09:44:17;8.60;99.90
52211;DHT22;38179;52.756;6.906;2024-03-02T09:46:43;8.70;99.90
52211;DHT22;38179;52.756;6.906;2024-03-02T09:49:10;8.70;99.90
52211;DHT22;38179;52.756;6.906;2024-03-02T09:51:37;8.80;99.90
52211;DHT22;38179;52.756;6.906;2024-03-02T09:54:03;8.90;99.90
52211;DHT22;38179;52.756;6.906;2024-03-02T09:56:29;8.90;99.90
52211;DHT22;38179;52.756;6.906;2024-03-02T09:58:54;8.90;99.90
52211;DHT22;38179;52.756;6.906;2024-03-02T10:01:20;9.00;99.90
52211;DHT22;38179;52.756;6.906;2024-03-02T10:03:47;9.10;99.90
52211;DHT22;38179;52.756;6.906;2024-03-02T10:06:23;9.10;99.90
52211;DHT22;38179;52.756;6.906;2024-03-02T10:08:50;9.20;99.90
52211;DHT22;38179;52.756;6.906;2024-03-02T10:11:45;9.20;99.90
52211;DHT22;38179;52.756;6.906;2024-03-02T10:14:14;9.40;99.90
52211;DHT22;38179;52.756;6.906;2024-03-02T10:16:40;9.40;99.90
52211;DHT22;38179;52.756;6.906;2024-03-02T10:21:43;9.50;99.90
52211;DHT22;38179;52.756;6.906;2024-03-02T10:24:09;9.50;99.90
52211;DHT22;38179;52.756;6.906;2024-03-02T10:26:34;9.50;99.90
52211;DHT22;38179;52.756;6.906;2024-03-02T10:29:00;9.60;99.90
52211;DHT22;38179;52.756;6.906;2024-03-02T10:31:26;9.60;99.90
52211;DHT22;38179;52.756;6.906;2024-03-02T10:33:57;9.50;99.90
52211;DHT22;38179;52.756;6.906;2024-03-02T10:36:23;9.60;99.90
52211;DHT22;38179;52.756;6.906;2024-03-02T10:38:49;9.60;99.90
52211;DHT22;38179;52.756;6.906;2024-03-02T10:41:18;9.70;99.90
52211;DHT22;38179;52.756;6.906;2024-03-02T10:43:44;9.60;99.90
52211;DHT22;38179;52.756;6.906;2024-03-02T10:46:11;9.60;99.90
52211;DHT22;38179;52.756;6.906;2024-03-02T10:48:39;9.70;99.90
52211;DHT22;38179;52.756;6.906;2024-03-02T10:51:06;9.80;99.90
52211;DHT22;38179;52.756;6.906;2024-03-02T10:53:32;9.80;99.90
52211;DHT22;38179;52.756;6.906;2024-03-02T10:55:58;9.80;99.90
52211;DHT22;38179;52.756;6.906;2024-03-02T10:58:32;9.70;99.90
52211;DHT22;38179;52.756;6.906;2024-03-02T11:01:03;9.70;99.90
52211;DHT22;38179;52.756;6.906;2024-03-02T11:03:36;9.70;99.90
52211;DHT22;38179;52.756;6.906;2024-03-02T11:06:07;9.60;99.90
52211;DHT22;38179;52.756;6.906;2024-03-02T11:08:34;9.60;99.90
52211;DHT22;38179;52.756;6.906;2024-03-02T11:11:07;9.60;99.90
52211;DHT22;38179;52.756;6.906;2024-03-02T11:13:34;9.50;99.90
52211;DHT22;38179;52.756;6.906;2024-03-02T11:16:18;9.50;99.90
52211;DHT22;38179;52.756;6.906;2024-03-02T11:18:48;9.40;99.90
52211;DHT22;38179;52.756;6.906;2024-03-02T11:21:16;9.50;99.90
52211;DHT22;38179;52.756;6.906;2024-03-02T11:23:42;9.60;99.90
52211;DHT22;38179;52.756;6.906;2024-03-02T11:26:21;9.70;99.90
52211;DHT22;38179;52.756;6.906;2024-03-02T11:28:47;9.70;99.90
52211;DHT22;38179;52.756;6.906;2024-03-02T11:31:13;9.80;99.90
52211;DHT22;38179;52.756;6.906;2024-03-02T11:33:39;9.90;99.90
52211;DHT22;38179;52.756;6.906;2024-03-02T11:36:06;10.00;99.90
52211;DHT22;38179;52.756;6.906;2024-03-02T11:38:34;10.20;99.90
52211;DHT22;38179;52.756;6.906;2024-03-02T11:41:06;10.30;99.90
52211;DHT22;38179;52.756;6.906;2024-03-02T11:43:37;10.40;99.90
52211;DHT22;38179;52.756;6.906;2024-03-02T11:46:05;10.50;99.90
52211;DHT22;38179;52.756;6.906;2024-03-02T11:48:36;10.60;99.90
52211;DHT22;38179;52.756;6.906;2024-03-02T11:51:02;10.70;99.90
52211;DHT22;38179;52.756;6.906;2024-03-02T11:53:28;10.80;99.90
52211;DHT22;38179;52.756;6.906;2024-03-02T11:55:58;10.80;99.90
52211;DHT22;38179;52.756;6.906;2024-03-02T11:58:24;11.00;99.90
52211;DHT22;38179;52.756;6.906;2024-03-02T12:00:52;11.00;99.90
52211;DHT22;38179;52.756;6.906;2024-03-02T12:03:21;10.90;99.90
52211;DHT22;38179;52.756;6.906;2024-03-02T12:05:53;10.90;99.90
52211;DHT22;38179;52.756;6.906;2024-03-02T12:08:19;11.00;99.90
52211;DHT22;38179;52.756;6.906;2024-03-02T12:10:59;11.10;99.90
52211;DHT22;38179;52.756;6.906;2024-03-02T12:13:26;11.20;99.90
52211;DHT22;38179;52.756;6.906;2024-03-02T12:15:55;11.30;99.90
52211;DHT22;38179;52.756;6.906;2024-03-02T12:18:24;11.30;99.90
52211;DHT22;38179;52.756;6.906;2024-03-02T12:20:52;11.30;99.90
52211;DHT22;38179;52.756;6.906;2024-03-02T12:23:18;11.30;99.90
52211;DHT22;38179;52.756;6.906;2024-03-02T12:25:44;11.30;99.90
52211;DHT22;38179;52.756;6.906;2024-03-02T12:28:11;11.30;99.90
52211;DHT22;38179;52.756;6.906;2024-03-02T12:30:37;11.40;99.90
52211;DHT22;38179;52.756;6.906;2024-03-02T12:33:02;11.50;99.90
52211;DHT22;38179;52.756;6.906;2024-03-02T12:35:29;11.50;99.90
52211;DHT22;38179;52.756;6.906;2024-03-02T12:37:55;11.50;99.90
52211;DHT22;38179;52.756;6.906;2024-03-02T12:40:22;11.40;99.90
52211;DHT22;38179;52.756;6.906;2024-03-02T12:42:48;11.50;99.90
52211;DHT22;38179;52.756;6.906;2024-03-02T12:45:15;11.60;99.90
52211;DHT22;38179;52.756;6.906;2024-03-02T12:47:45;11.70;99.90
52211;DHT22;38179;52.756;6.906;2024-03-02T12:50:10;11.80;99.90
52211;DHT22;38179;52.756;6.906;2024-03-02T12:52:36;11.90;99.90
52211;DHT22;38179;52.756;6.906;2024-03-02T12:55:04;12.00;99.90
52211;DHT22;38179;52.756;6.906;2024-03-02T12:57:31;12.10;99.90
52211;DHT22;38179;52.756;6.906;2024-03-02T13:00:05;12.20;99.90
52211;DHT22;38179;52.756;6.906;2024-03-02T13:02:41;12.30;99.90
52211;DHT22;38179;52.756;6.906;2024-03-02T13:05:07;12.40;99.90
52211;DHT22;38179;52.756;6.906;2024-03-02T13:07:37;12.50;99.90
52211;DHT22;38179;52.756;6.906;2024-03-02T13:10:04;12.40;99.90
52211;DHT22;38179;52.756;6.906;2024-03-02T13:12:30;12.40;99.90
52211;DHT22;38179;52.756;6.906;2024-03-02T13:14:58;12.40;99.90
52211;DHT22;38179;52.756;6.906;2024-03-02T13:17:24;12.40;99.90
52211;DHT22;38179;52.756;6.906;2024-03-02T13:19:58;12.40;99.90
52211;DHT22;38179;52.756;6.906;2024-03-02T13:22:25;12.50;99.90
52211;DHT22;38179;52.756;6.906;2024-03-02T13:24:52;12.50;99.90
52211;DHT22;38179;52.756;6.906;2024-03-02T13:27:20;12.50;99.90
52211;DHT22;38179;52.756;6.906;2024-03-02T13:29:46;12.50;99.90
52211;DHT22;38179;52.756;6.906;2024-03-02T13:32:16;12.60;99.90
52211;DHT22;38179;52.756;6.906;2024-03-02T13:34:42;12.60;99.90
52211;DHT22;38179;52.756;6.906;2024-03-02T13:37:08;12.60;99.90
52211;DHT22;38179;52.756;6.906;2024-03-02T13:39:34;12.60;99.90
52211;DHT22;38179;52.756;6.906;2024-03-02T13:42:07;12.70;99.90
52211;DHT22;38179;52.756;6.906;2024-03-02T13:44:34;12.80;99.90
52211;DHT22;38179;52.756;6.906;2024-03-02T13:47:00;12.70;99.90
52211;DHT22;38179;52.756;6.906;2024-03-02T13:49:26;12.60;99.90
52211;DHT22;38179;52.756;6.906;2024-03-02T13:52:12;12.60;99.90
52211;DHT22;38179;52.756;6.906;2024-03-02T13:54:43;12.50;99.90
52211;DHT22;38179;52.756;6.906;2024-03-02T13:57:11;12.40;99.90
52211;DHT22;38179;52.756;6.906;2024-03-02T13:59:38;12.40;99.90
52211;DHT22;38179;52.756;6.906;2024-03-02T14:02:05;12.40;99.90
52211;DHT22;38179;52.756;6.906;2024-03-02T14:04:34;12.30;99.90
52211;DHT22;38179;52.756;6.906;2024-03-02T14:07:00;12.30;99.90
52211;DHT22;38179;52.756;6.906;2024-03-02T14:09:26;12.20;99.90
52211;DHT22;38179;52.756;6.906;2024-03-02T14:11:52;12.10;99.90
52211;DHT22;38179;52.756;6.906;2024-03-02T14:14:18;12.10;99.90
52211;DHT22;38179;52.756;6.906;2024-03-02T14:16:44;12.10;99.90
52211;DHT22;38179;52.756;6.906;2024-03-02T14:19:11;12.10;99.90
52211;DHT22;38179;52.756;6.906;2024-03-02T14:21:38;12.00;99.90
52211;DHT22;38179;52.756;6.906;2024-03-02T14:24:03;12.00;99.90
52211;DHT22;38179;52.756;6.906;2024-03-02T14:26:29;11.90;99.90
52211;DHT22;38179;52.756;6.906;2024-03-02T14:28:55;11.90;99.90
52211;DHT22;38179;52.756;6.906;2024-03-02T14:31:21;11.90;99.90
52211;DHT22;38179;52.756;6.906;2024-03-02T14:33:47;11.90;99.90
52211;DHT22;38179;52.756;6.906;2024-03-02T14:36:12;11.90;99.90
52211;DHT22;38179;52.756;6.906;2024-03-02T14:38:39;11.90;99.90
52211;DHT22;38179;52.756;6.906;2024-03-02T14:41:05;11.90;99.90
52211;DHT22;38179;52.756;6.906;2024-03-02T14:43:31;11.90;99.90
52211;DHT22;38179;52.756;6.906;2024-03-02T14:45:56;11.90;99.90
52211;DHT22;38179;52.756;6.906;2024-03-02T14:48:24;12.00;99.90
52211;DHT22;38179;52.756;6.906;2024-03-02T14:50:50;12.00;99.90
52211;DHT22;38179;52.756;6.906;2024-03-02T14:53:16;12.00;99.90
52211;DHT22;38179;52.756;6.906;2024-03-02T14:55:43;12.00;99.90
52211;DHT22;38179;52.756;6.906;2024-03-02T14:58:09;12.00;99.90
52211;DHT22;38179;52.756;6.906;2024-03-02T15:00:35;12.00;99.90
52211;DHT22;38179;52.756;6.906;2024-03-02T15:03:01;11.90;99.90
52211;DHT22;38179;52.756;6.906;2024-03-02T15:05:27;12.00;99.90
52211;DHT22;38179;52.756;6.906;2024-03-02T15:07:53;12.00;99.90
52211;DHT22;38179;52.756;6.906;2024-03-02T15:10:18;12.00;99.90
52211;DHT22;38179;52.756;6.906;2024-03-02T15:12:44;12.10;99.90
52211;DHT22;38179;52.756;6.906;2024-03-02T15:15:10;12.10;99.90
52211;DHT22;38179;52.756;6.906;2024-03-02T15:17:37;12.10;99.90
52211;DHT22;38179;52.756;6.906;2024-03-02T15:20:03;12.10;99.90
52211;DHT22;38179;52.756;6.906;2024-03-02T15:22:30;12.10;99.90
52211;DHT22;38179;52.756;6.906;2024-03-02T15:24:55;12.00;99.90
52211;DHT22;38179;52.756;6.906;2024-03-02T15:27:21;12.00;99.90
52211;DHT22;38179;52.756;6.906;2024-03-02T15:29:47;12.00;99.90
52211;DHT22;38179;52.756;6.906;2024-03-02T15:32:15;12.10;99.90
52211;DHT22;38179;52.756;6.906;2024-03-02T15:34:41;12.10;99.90
52211;DHT22;38179;52.756;6.906;2024-03-02T15:37:08;12.10;99.90
52211;DHT22;38179;52.756;6.906;2024-03-02T15:39:34;12.10;99.90
52211;DHT22;38179;52.756;6.906;2024-03-02T15:42:00;12.10;99.90
52211;DHT22;38179;52.756;6.906;2024-03-02T15:44:25;12.00;99.90
52211;DHT22;38179;52.756;6.906;2024-03-02T15:46:51;12.10;99.90
52211;DHT22;38179;52.756;6.906;2024-03-02T15:49:17;12.10;99.90